Time;durP1;ratioP1;P1;durP2;ratioP2;P2;SDS_P1;SDS_P2;PMS_P1;PMS_P2;Temp;Humidity;BMP_temperature;BMP_pressure;BME280_temperature;BME280_humidity;BME280_pressure;Samples;Min_cycle;Max_cycle;Signal;HPM_P1;HPM_P2
2022/05/15 00:00:43;;;;;;;6.03;4.47;;;;;;;20.07;59.77;97014.47;5064057;28;20192;-85
2022/05/15 00:03:23;;;;;;;7.63;4.53;;;;;;;20.22;59.91;97040.31;5090429;28;20628;-93
2022/05/15 00:05:54;;;;;;;7.10;5.03;;;;;;;20.23;60.91;97043.78;5109058;28;20191;-87
2022/05/15 00:08:23;;;;;;;7.33;5.33;;;;;;;20.07;61.61;97038.94;5108748;28;20226;-86
2022/05/15 00:10:51;;;;;;;7.13;4.47;;;;;;;20.18;61.83;97048.56;5108648;28;20188;-88
2022/05/15 00:13:19;;;;;;;6.43;4.60;;;;;;;20.09;62.05;97041.44;5090167;28;20188;-87
2022/05/15 00:15:49;;;;;;;6.23;4.17;;;;;;;20.05;62.25;97055.81;5110484;28;20200;-88
2022/05/15 00:18:21;;;;;;;6.97;4.33;;;;;;;19.89;62.79;97035.22;5113598;28;20195;-86
2022/05/15 00:20:51;;;;;;;6.43;4.43;;;;;;;19.47;66.45;97041.38;5108615;28;20198;-86
2022/05/15 00:23:20;;;;;;;5.93;4.87;;;;;;;19.39;68.30;97062.19;5108681;28;20234;-88
2022/05/15 00:25:47;;;;;;;6.00;4.70;;;;;;;19.19;69.84;97061.09;5108474;28;20611;-86
2022/05/15 00:28:14;;;;;;;5.20;4.70;;;;;;;19.19;69.59;97066.34;5108020;28;20226;-87
2022/05/15 00:30:43;;;;;;;7.07;5.27;;;;;;;19.20;70.00;97062.78;5089790;28;20264;-87
2022/05/15 00:33:10;;;;;;;6.13;5.17;;;;;;;19.22;70.47;97081.03;5108936;28;20198;-87
2022/05/15 00:35:40;;;;;;;8.17;5.73;;;;;;;18.85;71.72;97075.22;5113499;28;20199;-88
2022/05/15 00:38:10;;;;;;;5.33;4.83;;;;;;;18.89;71.87;97073.19;5079391;28;20200;-85
2022/05/15 00:40:41;;;;;;;9.80;5.97;;;;;;;18.93;71.98;97072.00;5116425;28;20190;-88
2022/05/15 00:43:33;;;;;;;6.33;5.70;;;;;;;18.88;72.04;97072.34;5110320;28;20263;-86
2022/05/15 00:46:03;;;;;;;6.47;5.40;;;;;;;19.06;71.51;97064.84;5076278;28;20204;-87
2022/05/15 00:48:30;;;;;;;6.17;5.13;;;;;;;18.76;71.39;97039.19;5085763;28;20600;-95
2022/05/15 00:51:01;;;;;;;8.23;5.10;;;;;;;18.80;72.02;97064.25;5089616;28;20631;-94
2022/05/15 00:53:28;;;;;;;6.47;5.50;;;;;;;19.02;71.27;97073.91;5070955;28;21003;-86
2022/05/15 00:55:57;;;;;;;6.97;5.83;;;;;;;18.93;71.64;97057.09;5087559;28;20674;-85
2022/05/15 00:58:33;;;;;;;8.43;5.27;;;;;;;18.65;72.41;97032.16;5087323;28;20180;-90
2022/05/15 01:01:01;;;;;;;7.57;5.20;;;;;;;19.03;71.60;97081.66;5068753;28;20198;-88
2022/05/15 01:03:30;;;;;;;5.87;5.27;;;;;;;19.03;71.15;97075.56;5052596;28;20203;-87
2022/05/15 01:05:57;;;;;;;6.50;5.53;;;;;;;18.91;71.25;97040.63;5052617;28;20234;-86
2022/05/15 01:08:30;;;;;;;8.67;5.37;;;;;;;18.95;71.43;97068.28;5068752;28;20228;-87
2022/05/15 01:11:05;;;;;;;6.80;5.20;;;;;;;18.89;71.58;97063.53;5076061;28;20202;-90
2022/05/15 01:13:36;;;;;;;7.27;5.60;;;;;;;18.78;72.44;97060.06;5093302;28;20182;-85
2022/05/15 01:16:05;;;;;;;6.73;6.03;;;;;;;18.62;74.82;97084.03;5076455;28;20187;-88
2022/05/15 01:18:36;;;;;;;8.63;6.37;;;;;;;18.20;76.38;97050.56;5084502;28;20183;-85
2022/05/15 01:21:23;;;;;;;9.27;6.33;;;;;;;18.07;77.64;97073.44;5055531;28;20296;-86
2022/05/15 01:23:51;;;;;;;7.93;6.20;;;;;;;18.09;76.85;97066.28;5069444;28;20245;-88
2022/05/15 01:26:21;;;;;;;10.17;6.53;;;;;;;18.35;76.12;97086.09;5069361;28;20188;-86
2022/05/15 01:28:49;;;;;;;9.00;6.50;;;;;;;18.30;76.30;97089.06;5069820;28;20598;-88
2022/05/15 01:31:17;;;;;;;9.80;6.97;;;;;;;18.17;77.30;97090.13;5068997;28;20771;-87
2022/05/15 01:33:51;;;;;;;9.47;6.67;;;;;;;17.64;79.45;97087.06;5069666;28;20225;-86
2022/05/15 01:36:22;;;;;;;8.53;5.73;;;;;;;17.40;80.05;97078.34;5087165;28;20202;-87
2022/05/15 01:38:50;;;;;;;8.57;6.13;;;;;;;17.42;80.45;97084.31;5051969;28;20613;-89
2022/05/15 01:41:19;;;;;;;14.77;7.40;;;;;;;17.46;80.64;97085.75;5087622;28;20299;-86
2022/05/15 01:43:53;;;;;;;16.77;7.37;;;;;;;17.57;79.51;97085.84;5088957;28;20199;-86
2022/05/15 01:46:28;;;;;;;10.70;6.60;;;;;;;17.37;80.25;97096.06;5058138;28;20201;-85
2022/05/15 01:49:06;;;;;;;8.27;6.40;;;;;;;17.25;80.50;97095.16;5096273;28;20214;-88
2022/05/15 01:51:39;;;;;;;9.03;6.80;;;;;;;16.79;81.73;97052.25;5094772;28;20251;-89
2022/05/15 01:54:08;;;;;;;10.00;7.03;;;;;;;16.87;82.29;97082.16;5093729;28;20213;-86
2022/05/15 01:56:36;;;;;;;9.47;6.37;;;;;;;16.88;82.29;97080.38;5076472;28;20748;-86
2022/05/15 01:59:06;;;;;;;7.47;6.63;;;;;;;16.71;82.31;97068.47;5058523;28;20604;-85
2022/05/15 02:01:33;;;;;;;8.93;6.90;;;;;;;16.80;83.03;97095.78;5080305;28;20178;-86
2022/05/15 02:04:01;;;;;;;9.30;6.77;;;;;;;16.88;82.73;97091.69;5070944;28;20243;-84
2022/05/15 02:06:28;;;;;;;7.97;6.30;;;;;;;16.75;81.35;97053.41;5085921;28;20190;-86
2022/05/15 02:08:57;;;;;;;8.23;6.37;;;;;;;17.30;79.86;97073.88;5106625;28;20221;-85
2022/05/15 02:11:24;;;;;;;8.17;6.53;;;;;;;17.62;78.24;97093.38;5089088;28;20246;-84
2022/05/15 02:13:52;;;;;;;7.10;6.03;;;;;;;17.66;77.70;97085.16;5076405;28;20596;-86
2022/05/15 02:16:20;;;;;;;9.13;6.00;;;;;;;17.67;77.49;97094.72;5077628;28;20518;-85
2022/05/15 02:18:49;;;;;;;10.47;6.67;;;;;;;17.51;77.02;97061.91;5103571;28;20202;-88
2022/05/15 02:21:16;;;;;;;11.07;6.07;;;;;;;17.76;76.50;97108.94;5076933;28;20205;-87
2022/05/15 02:23:45;;;;;;;9.40;6.33;;;;;;;17.57;76.31;97106.81;5076585;28;20229;-86
2022/05/15 02:26:13;;;;;;;8.70;6.00;;;;;;;17.61;76.13;97118.72;5060364;28;20190;-85
2022/05/15 02:28:41;;;;;;;6.20;5.50;;;;;;;17.42;75.72;97097.41;5076767;28;20232;-87
2022/05/15 02:31:09;;;;;;;7.93;6.23;;;;;;;17.23;75.69;97080.53;5076878;28;20186;-86
2022/05/15 02:33:36;;;;;;;9.83;6.40;;;;;;;17.43;75.37;97091.22;5075566;28;20228;-89
2022/05/15 02:36:04;;;;;;;9.17;5.80;;;;;;;17.25;76.52;97089.91;5074624;28;20699;-88
2022/05/15 02:38:32;;;;;;;12.03;5.93;;;;;;;17.35;76.72;97124.94;5056907;28;20216;-89
2022/05/15 02:40:59;;;;;;;5.93;5.33;;;;;;;17.44;75.18;97121.69;5072831;28;20204;-86
2022/05/15 02:43:27;;;;;;;7.43;5.37;;;;;;;17.43;75.53;97119.19;5073615;28;20197;-87
2022/05/15 02:45:55;;;;;;;7.43;6.33;;;;;;;17.18;75.21;97099.16;5073336;28;20194;-86
2022/05/15 02:51:12;;;;;;;6.17;5.47;;;;;;;17.30;75.36;97129.69;5059565;28;20192;-86
2022/05/15 02:53:42;;;;;;;7.83;5.87;;;;;;;17.22;75.33;97133.78;5075553;28;20187;-88
2022/05/15 02:56:32;;;;;;;6.93;5.43;;;;;;;16.99;75.27;97110.09;5093719;28;20188;-88
2022/05/15 02:59:05;;;;;;;6.90;5.90;;;;;;;16.97;75.93;97114.59;5074994;28;20729;-86
2022/05/15 03:01:36;;;;;;;8.23;5.90;;;;;;;17.13;74.88;97131.81;5075153;28;20223;-86
2022/05/15 03:04:06;;;;;;;8.10;5.90;;;;;;;16.80;75.80;97137.63;5094345;28;20181;-86
2022/05/15 03:06:34;;;;;;;8.23;6.03;;;;;;;16.56;77.16;97140.16;5093864;28;20185;-85
2022/05/15 03:09:03;;;;;;;6.70;5.60;;;;;;;16.10;79.25;97133.66;5076226;28;20217;-85
2022/05/15 03:11:31;;;;;;;7.93;6.10;;;;;;;16.25;79.57;97143.94;5057279;28;20221;-85
2022/05/15 03:13:59;;;;;;;8.87;6.33;;;;;;;16.18;79.24;97105.25;5101012;28;20196;-86
2022/05/15 03:16:29;;;;;;;7.53;5.93;;;;;;;16.45;77.84;97144.38;5080921;28;20192;-85
2022/05/15 03:18:57;;;;;;;7.20;6.17;;;;;;;16.48;77.89;97115.44;5080141;28;20210;-85
2022/05/15 03:21:31;;;;;;;10.10;6.13;;;;;;;17.00;76.03;97150.19;5073700;28;20182;-87
2022/05/15 03:24:05;;;;;;;5.63;5.13;;;;;;;17.13;76.20;97152.75;5056820;28;20506;-84
2022/05/15 03:26:35;;;;;;;8.60;5.43;;;;;;;16.96;73.88;97125.19;5057090;28;20191;-84
2022/05/15 03:29:03;;;;;;;6.93;5.17;;;;;;;16.98;73.71;97139.00;5090597;28;20781;-84
2022/05/15 03:31:32;;;;;;;28.60;5.70;;;;;;;16.52;74.04;97141.28;5075197;28;20218;-84
2022/05/15 03:33:59;;;;;;;6.13;5.43;;;;;;;16.38;74.71;97141.38;5096918;28;20192;-85
2022/05/15 03:36:26;;;;;;;9.57;5.10;;;;;;;16.30;74.18;97134.00;5059251;28;20221;-84
2022/05/15 03:38:55;;;;;;;7.87;4.87;;;;;;;16.42;74.52;97161.13;5083126;28;20199;-86
2022/05/15 03:41:22;;;;;;;6.50;5.33;;;;;;;16.37;73.99;97125.75;5109271;28;20249;-89
2022/05/15 03:43:49;;;;;;;6.87;5.97;;;;;;;16.87;72.98;97157.19;5094437;28;20185;-91
2022/05/15 03:46:16;;;;;;;7.33;5.07;;;;;;;16.98;71.87;97144.22;5113872;28;20186;-89
2022/05/15 03:48:43;;;;;;;6.73;4.70;;;;;;;17.60;70.07;97158.09;5114433;28;20225;-88
2022/05/15 03:51:10;;;;;;;8.07;5.03;;;;;;;17.51;69.33;97164.88;5079834;28;20508;-85
2022/05/15 03:53:37;;;;;;;7.43;5.37;;;;;;;17.05;70.15;97141.06;5117157;28;20188;-84
2022/05/15 03:56:05;;;;;;;6.70;4.77;;;;;;;17.25;70.11;97144.06;5118365;28;20177;-86
2022/05/15 03:58:38;;;;;;;7.33;5.17;;;;;;;17.38;70.19;97171.03;5136267;27;20176;-85
2022/05/15 04:01:06;;;;;;;6.43;5.30;;;;;;;17.94;67.89;97143.41;5136921;28;20166;-85
2022/05/15 04:03:35;;;;;;;7.23;5.30;;;;;;;18.67;66.34;97179.78;5118759;28;20283;-85
2022/05/15 04:06:06;;;;;;;6.93;5.10;;;;;;;18.92;63.73;97152.50;5113624;28;20260;-88
2022/05/15 04:08:34;;;;;;;7.03;5.63;;;;;;;18.64;64.78;97161.69;5118033;28;20194;-87
2022/05/15 04:11:02;;;;;;;5.40;4.70;;;;;;;17.92;67.53;97153.16;5097486;28;20188;-87
2022/05/15 04:13:32;;;;;;;6.90;5.03;;;;;;;17.99;68.31;97155.22;5115962;28;20190;-84
2022/05/15 04:15:59;;;;;;;7.73;6.00;;;;;;;18.58;67.45;97164.75;5095282;28;20668;-85
2022/05/15 04:18:26;;;;;;;7.40;5.90;;;;;;;19.46;65.16;97171.88;5103258;28;20187;-92
2022/05/15 04:20:54;;;;;;;5.80;4.67;;;;;;;19.94;62.88;97153.97;5134119;27;20209;-86
2022/05/15 04:23:21;;;;;;;10.57;5.53;;;;;;;20.36;61.99;97177.75;5115717;28;20208;-85
2022/05/15 04:25:48;;;;;;;6.90;4.90;;;;;;;19.80;63.98;97183.19;5112784;28;20219;-87
2022/05/15 04:28:15;;;;;;;7.33;4.70;;;;;;;19.46;65.09;97184.16;5109518;28;20192;-88
2022/05/15 04:30:42;;;;;;;9.77;5.73;;;;;;;19.30;64.86;97163.50;5108874;28;20287;-84
2022/05/15 04:33:09;;;;;;;5.57;5.00;;;;;;;19.28;65.25;97181.19;5107099;28;20761;-86
2022/05/15 04:35:36;;;;;;;4.90;4.40;;;;;;;19.73;64.83;97192.50;5110354;28;20177;-91
2022/05/15 04:38:03;;;;;;;9.63;5.57;;;;;;;20.04;63.22;97159.31;5099791;28;20201;-85
2022/05/15 04:40:31;;;;;;;5.97;4.70;;;;;;;20.35;62.06;97147.13;5095628;28;20247;-85
2022/05/15 04:43:02;;;;;;;7.37;5.33;;;;;;;21.07;60.90;97167.28;5116364;28;20182;-86
2022/05/15 04:45:29;;;;;;;7.23;5.03;;;;;;;21.64;60.10;97193.00;5113354;28;20226;-85
2022/05/15 04:47:57;;;;;;;7.40;6.07;;;;;;;21.73;60.28;97163.22;5109461;28;20202;-86
2022/05/15 04:50:24;;;;;;;6.93;5.60;;;;;;;21.57;61.93;97182.19;5077645;28;20277;-86
2022/05/15 04:52:52;;;;;;;8.83;6.27;;;;;;;21.61;61.92;97153.75;5089514;28;20190;-89
2022/05/15 04:55:20;;;;;;;10.60;6.67;;;;;;;21.81;62.01;97192.38;5095921;28;20271;-85
2022/05/15 04:57:47;;;;;;;8.07;6.30;;;;;;;21.78;61.82;97163.66;5092277;28;20191;-90
2022/05/15 05:00:17;;;;;;;7.80;6.33;;;;;;;22.24;60.71;97187.59;5104059;28;20259;-84
2022/05/15 05:02:46;;;;;;;11.40;6.80;;;;;;;21.93;62.43;97177.31;5096492;28;20189;-85
2022/05/15 05:05:13;;;;;;;8.87;6.90;;;;;;;22.03;59.45;97142.03;5115595;28;20224;-85
2022/05/15 05:07:40;;;;;;;7.43;6.70;;;;;;;22.39;59.58;97180.94;5116026;28;20187;-86
2022/05/15 05:10:10;;;;;;;7.90;6.17;;;;;;;22.46;58.71;97181.22;5115923;28;20894;-85
2022/05/15 05:12:38;;;;;;;10.57;6.77;;;;;;;22.56;59.64;97190.81;5116306;28;20182;-86
2022/05/15 05:15:06;;;;;;;9.17;7.00;;;;;;;22.72;59.58;97192.91;5116770;28;20219;-86
2022/05/15 05:17:33;;;;;;;12.53;7.37;;;;;;;22.70;59.21;97196.66;5116259;28;20275;-86
2022/05/15 05:20:00;;;;;;;8.67;7.47;;;;;;;22.75;59.28;97186.50;5116255;28;20185;-86
2022/05/15 05:22:28;;;;;;;7.60;6.80;;;;;;;23.07;58.79;97179.91;5116570;28;20201;-86
2022/05/15 05:24:56;;;;;;;10.43;7.00;;;;;;;22.94;59.67;97166.16;5114802;28;20227;-88
2022/05/15 05:27:23;;;;;;;9.00;7.50;;;;;;;23.02;59.80;97189.25;5115266;28;20184;-87
2022/05/15 05:29:51;;;;;;;9.93;7.53;;;;;;;22.73;60.09;97183.19;5115201;28;20213;-87
2022/05/15 05:32:17;;;;;;;12.53;8.00;;;;;;;22.60;61.17;97181.69;5118539;28;20205;-95
2022/05/15 05:34:44;;;;;;;7.80;7.00;;;;;;;22.84;60.61;97162.72;5119748;28;20189;-87
2022/05/15 05:37:15;;;;;;;9.73;6.93;;;;;;;22.96;59.85;97174.78;5119272;28;20184;-87
2022/05/15 05:39:42;;;;;;;7.57;6.70;;;;;;;22.92;59.93;97188.41;5118867;28;20196;-85
2022/05/15 05:42:09;;;;;;;11.90;7.93;;;;;;;22.70;61.28;97186.94;5120937;28;20261;-86
2022/05/15 05:44:38;;;;;;;9.97;7.43;;;;;;;22.67;61.91;97199.59;5119687;28;20191;-87
2022/05/15 05:47:07;;;;;;;10.27;7.03;;;;;;;22.55;60.99;97132.84;5115496;28;20298;-87
2022/05/15 05:49:34;;;;;;;9.10;6.30;;;;;;;22.99;60.50;97176.31;5110548;28;20209;-85
2022/05/15 05:52:03;;;;;;;11.07;7.53;;;;;;;23.25;60.66;97193.19;5118671;28;20211;-86
2022/05/15 05:54:30;;;;;;;15.47;7.83;;;;;;;22.80;59.98;97142.84;5120149;28;20170;-86
2022/05/15 05:57:00;;;;;;;11.57;6.53;;;;;;;23.29;58.99;97189.28;5119316;28;20194;-87
2022/05/15 05:59:27;;;;;;;9.33;7.37;;;;;;;22.79;59.49;97119.22;5113820;28;20197;-84
2022/05/15 06:01:54;;;;;;;7.97;6.40;;;;;;;23.06;59.47;97165.00;5112748;28;20185;-86
2022/05/15 06:04:40;;;;;;;9.00;6.77;;;;;;;23.12;59.19;97145.13;5115086;28;20190;-85
2022/05/15 06:07:15;;;;;;;8.40;6.83;;;;;;;23.14;59.75;97157.19;5118466;28;20178;-86
2022/05/15 06:09:49;;;;;;;15.20;9.03;;;;;;;23.51;59.19;97185.47;5115849;28;20220;-85
2022/05/15 06:12:20;;;;;;;11.10;7.23;;;;;;;23.60;58.15;97182.78;5101063;28;20225;-85
2022/05/15 06:14:49;;;;;;;8.07;7.03;;;;;;;23.54;58.44;97156.91;5117410;28;20229;-86
2022/05/15 06:17:28;;;;;;;9.50;7.00;;;;;;;22.80;61.25;97189.53;5116854;28;20204;-89
2022/05/15 06:19:56;;;;;;;9.53;6.50;;;;;;;22.92;61.29;97185.75;5114244;28;20189;-85
2022/05/15 06:22:24;;;;;;;9.07;6.90;;;;;;;23.01;61.42;97183.13;5115832;28;20183;-86
2022/05/15 06:24:52;;;;;;;8.80;7.00;;;;;;;23.02;61.72;97189.25;5116249;28;20224;-87
2022/05/15 06:27:20;;;;;;;9.27;7.27;;;;;;;22.47;62.79;97191.66;5116892;28;20183;-88
2022/05/15 06:29:50;;;;;;;8.20;6.60;;;;;;;22.42;62.29;97172.75;5084779;28;20227;-84
2022/05/15 06:32:17;;;;;;;8.70;7.70;;;;;;;22.89;61.63;97171.06;5117260;28;20171;-85
2022/05/15 06:34:48;;;;;;;10.80;8.40;;;;;;;23.02;60.71;97173.41;5117830;28;20248;-87
2022/05/15 06:37:16;;;;;;;10.67;7.33;;;;;;;22.38;63.36;97192.47;5114438;28;20256;-86
2022/05/15 06:39:43;;;;;;;8.97;7.50;;;;;;;22.31;63.37;97153.59;5113657;28;20204;-84
2022/05/15 06:42:14;;;;;;;9.17;8.27;;;;;;;22.25;63.47;97162.91;5117466;28;20185;-85
2022/05/15 06:44:47;;;;;;;8.90;6.90;;;;;;;22.22;61.82;97077.88;5100511;28;20198;-84
2022/05/15 06:47:15;;;;;;;11.30;8.23;;;;;;;22.72;63.85;97194.69;5116802;28;20231;-86
2022/05/15 06:49:42;;;;;;;7.97;7.17;;;;;;;23.05;61.79;97183.66;5116942;28;20237;-86
2022/05/15 06:52:11;;;;;;;13.17;7.23;;;;;;;23.22;61.16;97178.47;5115687;28;20226;-86
2022/05/15 06:54:39;;;;;;;7.90;6.70;;;;;;;23.34;59.04;97148.25;5116991;28;20182;-85
2022/05/15 06:59:54;;;;;;;8.90;6.67;;;;;;;23.57;59.56;97177.78;5112811;28;20196;-86
2022/05/15 07:02:25;;;;;;;7.00;6.30;;;;;;;23.57;58.11;97154.00;5115939;28;20191;-85
2022/05/15 07:05:15;;;;;;;7.83;6.83;;;;;;;23.52;58.22;97164.16;5115471;28;20188;-85
2022/05/15 07:07:44;;;;;;;9.83;7.20;;;;;;;23.29;59.19;97181.34;5117060;28;20209;-85
2022/05/15 07:10:19;;;;;;;9.10;7.40;;;;;;;23.31;59.20;97200.53;5116273;28;20243;-85
2022/05/15 07:12:59;;;;;;;7.57;6.67;;;;;;;23.53;58.18;97157.91;5093464;28;20207;-86
2022/05/15 07:15:29;;;;;;;6.70;6.07;;;;;;;23.83;56.61;97186.69;5100578;28;20254;-84
2022/05/15 07:17:56;;;;;;;7.73;6.30;;;;;;;24.09;56.12;97198.25;5115178;28;20298;-85
2022/05/15 07:20:30;;;;;;;8.97;6.27;;;;;;;24.01;56.83;97199.94;5094531;28;20198;-86
2022/05/15 07:23:20;;;;;;;8.87;6.43;;;;;;;24.16;55.37;97188.75;5112861;28;20235;-86
2022/05/15 07:25:50;;;;;;;8.37;6.20;;;;;;;24.18;55.61;97192.06;5111535;28;20258;-87
2022/05/15 07:28:18;;;;;;;7.47;6.03;;;;;;;24.36;55.20;97200.00;5105757;28;20198;-85
2022/05/15 07:30:45;;;;;;;8.10;5.87;;;;;;;24.45;54.11;97179.72;5126121;28;20255;-86
2022/05/15 07:33:17;;;;;;;6.77;5.17;;;;;;;24.36;53.94;97133.00;5130613;28;20186;-84
2022/05/15 07:35:45;;;;;;;6.73;5.10;;;;;;;24.77;53.06;97198.59;5095483;28;20190;-86
2022/05/15 07:38:15;;;;;;;6.17;5.53;;;;;;;24.81;51.60;97192.81;5113721;28;20190;-87
2022/05/15 07:40:46;;;;;;;7.97;4.70;;;;;;;24.30;52.56;97189.22;5131851;28;20201;-86
2022/05/15 07:43:15;;;;;;;8.67;4.70;;;;;;;24.32;53.00;97164.22;5113952;28;20197;-85
2022/05/15 07:45:42;;;;;;;5.60;5.10;;;;;;;24.64;51.46;97201.59;5112362;28;20257;-85
2022/05/15 07:48:12;;;;;;;5.97;4.60;;;;;;;24.47;52.06;97180.41;5112059;28;20678;-86
2022/05/15 07:50:48;;;;;;;6.40;5.33;;;;;;;24.88;52.12;97190.38;5130112;28;20305;-85
2022/05/15 07:53:16;;;;;;;6.43;5.03;;;;;;;24.04;52.59;97165.28;5113420;28;20199;-91
2022/05/15 07:55:44;;;;;;;5.67;4.57;;;;;;;24.57;51.52;97186.44;5131790;28;20196;-86
2022/05/15 07:58:12;;;;;;;5.30;4.80;;;;;;;24.65;50.71;97189.16;5133198;28;20183;-91
2022/05/15 08:00:42;;;;;;;4.70;4.03;;;;;;;24.54;48.79;97163.78;5134523;28;20194;-86
2022/05/15 08:03:13;;;;;;;5.23;4.73;;;;;;;24.93;48.31;97194.25;5116884;28;20182;-86
2022/05/15 08:08:36;;;;;;;7.00;4.37;;;;;;;24.25;48.74;97176.41;5120884;28;20599;-87
2022/05/15 08:11:31;;;;;;;5.97;4.50;;;;;;;24.61;50.01;97199.25;5108466;28;20226;-87
2022/05/15 08:14:25;;;;;;;5.73;5.10;;;;;;;24.79;51.17;97191.31;5133605;28;20190;-85
2022/05/15 08:16:53;;;;;;;4.90;4.43;;;;;;;25.06;49.35;97193.00;5113858;28;20182;-85
2022/05/15 08:24:58;;;;;;;6.67;4.40;;;;;;;25.12;49.71;97193.22;5132880;28;20219;-87
2022/05/15 08:27:28;;;;;;;6.67;4.40;;;;;;;25.27;48.49;97188.13;5131055;28;20211;-87
2022/05/15 08:29:57;;;;;;;4.90;4.27;;;;;;;25.47;47.72;97193.09;5132560;28;20215;-86
2022/05/15 08:32:26;;;;;;;10.93;4.43;;;;;;;25.73;47.09;97201.84;5131648;28;20255;-86
2022/05/15 08:34:55;;;;;;;4.93;4.23;;;;;;;25.69;47.79;97192.53;5132211;28;20214;-85
2022/05/15 08:37:22;;;;;;;4.43;3.90;;;;;;;25.54;48.17;97196.78;5133718;28;20243;-87
2022/05/15 08:39:50;;;;;;;5.27;4.37;;;;;;;23.90;50.00;97071.38;5131902;28;20191;-86
2022/05/15 08:42:31;;;;;;;6.90;4.47;;;;;;;24.79;50.17;97193.97;5131843;28;20187;-86
2022/05/15 08:45:01;;;;;;;6.33;4.70;;;;;;;24.86;49.98;97193.19;5113280;28;20210;-86
2022/05/15 08:47:37;;;;;;;7.40;4.20;;;;;;;24.42;49.66;97150.94;5078805;28;20192;-85
2022/05/15 08:50:20;;;;;;;4.13;3.70;;;;;;;25.30;47.05;97191.31;5117433;28;20256;-85
2022/05/15 08:53:02;;;;;;;4.70;4.17;;;;;;;25.37;47.80;97197.66;5081689;28;20195;-87
2022/05/15 08:55:47;;;;;;;6.43;4.20;;;;;;;25.71;46.29;97192.38;5118557;28;20272;-87
2022/05/15 08:58:37;;;;;;;6.70;4.50;;;;;;;25.99;46.32;97193.78;5114485;28;20268;-85
2022/05/15 09:01:29;;;;;;;8.83;4.00;;;;;;;25.55;45.16;97126.00;5118670;27;20195;-85
2022/05/15 09:04:01;;;;;;;5.33;3.60;;;;;;;25.91;45.20;97191.13;5118923;28;20230;-85
2022/05/15 09:06:49;;;;;;;9.90;3.93;;;;;;;25.95;45.63;97186.31;5134295;28;20172;-85
2022/05/15 09:09:35;;;;;;;8.60;4.37;;;;;;;26.21;44.22;97184.44;5135780;27;20193;-87
2022/05/15 09:12:12;;;;;;;5.13;3.80;;;;;;;25.84;45.07;97196.22;5136693;27;20229;-86
2022/05/15 09:14:42;;;;;;;5.90;3.60;;;;;;;25.59;45.17;97197.16;5136062;27;20183;-90
2022/05/15 09:17:31;;;;;;;6.53;3.67;;;;;;;25.46;45.07;97190.59;5133662;27;20211;-86
2022/05/15 09:20:11;;;;;;;6.63;3.87;;;;;;;25.43;44.23;97199.69;5114970;28;20213;-84
2022/05/15 09:22:50;;;;;;;4.47;3.50;;;;;;;25.22;45.30;97191.28;5134881;28;20218;-87
2022/05/15 09:25:22;;;;;;;4.80;3.67;;;;;;;25.04;46.25;97191.31;5133827;28;20202;-87
2022/05/15 09:27:57;;;;;;;6.83;4.20;;;;;;;25.50;44.67;97171.56;5132373;28;20187;-85
2022/05/15 09:30:41;;;;;;;5.17;4.70;;;;;;;25.77;44.12;97183.78;5113744;28;20207;-87
2022/05/15 09:33:30;;;;;;;4.77;3.73;;;;;;;25.34;45.13;97192.66;5114138;28;20191;-85
2022/05/15 09:36:19;;;;;;;4.40;4.00;;;;;;;25.29;45.62;97194.13;5115361;28;20184;-88
2022/05/15 09:39:08;;;;;;;5.77;4.30;;;;;;;25.40;43.73;97186.75;5115399;28;20192;-85
2022/05/15 09:44:26;;;;;;;5.50;3.40;;;;;;;25.69;42.26;97197.84;5129653;28;20194;-88
2022/05/15 09:47:03;;;;;;;6.67;3.70;;;;;;;25.62;42.28;97190.66;5133349;27;20187;-84
2022/05/15 09:49:35;;;;;;;3.53;3.20;;;;;;;25.58;42.58;97178.72;5114598;28;20188;-87
2022/05/15 09:52:31;;;;;;;4.13;3.43;;;;;;;25.26;42.82;97162.63;5121668;28;20222;-85
2022/05/15 09:56:01;;;;;;;5.57;3.40;;;;;;;25.39;43.89;97177.09;5131837;28;20187;-87
2022/05/15 09:58:57;;;;;;;7.90;3.87;;;;;;;25.36;44.20;97189.84;5129484;28;20219;-87
2022/05/15 10:01:41;;;;;;;4.17;3.30;;;;;;;25.29;42.33;97184.34;5117359;28;20204;-86
2022/05/15 10:04:24;;;;;;;6.83;3.57;;;;;;;25.66;40.49;97182.25;5094562;28;20175;-86
2022/05/15 10:06:57;;;;;;;3.43;2.50;;;;;;;25.94;39.13;97179.34;5093573;28;20221;-86
2022/05/15 10:09:34;;;;;;;6.87;3.47;;;;;;;26.10;41.44;97174.94;5107374;28;20698;-86
2022/05/15 10:12:01;;;;;;;4.97;3.37;;;;;;;26.22;42.36;97183.41;5129211;28;20272;-87
2022/05/15 10:14:42;;;;;;;4.27;3.00;;;;;;;26.09;41.28;97180.44;5128572;28;20184;-86
2022/05/15 10:17:11;;;;;;;5.00;4.20;;;;;;;25.66;45.62;97192.00;5110839;28;20327;-86
2022/05/15 10:20:07;;;;;;;5.13;4.00;;;;;;;25.58;45.12;97184.84;5115081;28;20200;-87
2022/05/15 10:22:48;;;;;;;5.63;4.23;;;;;;;25.12;45.99;97187.06;5133191;28;20203;-86
2022/05/15 10:25:42;;;;;;;3.93;3.23;;;;;;;25.03;45.76;97172.94;5092487;28;20252;-84
2022/05/15 10:28:47;;;;;;;5.30;3.90;;;;;;;25.15;45.63;97173.50;5087005;28;20209;-85
2022/05/15 10:31:39;;;;;;;3.80;3.50;;;;;;;25.21;45.01;97181.66;5089527;28;20231;-85
2022/05/15 10:34:15;;;;;;;4.73;3.97;;;;;;;25.40;44.33;97175.28;5090448;28;20204;-85
2022/05/15 10:36:48;;;;;;;5.30;3.87;;;;;;;25.36;45.12;97173.94;5091779;28;20196;-84
2022/05/15 10:39:21;;;;;;;6.50;4.00;;;;;;;25.29;45.33;97179.03;5091913;28;20178;-85
2022/05/15 10:42:28;;;;;;;7.80;4.10;;;;;;;25.30;43.91;97172.75;5096635;28;20223;-86
2022/05/15 10:45:18;;;;;;;6.67;3.73;;;;;;;25.48;42.42;97178.84;5096791;28;20188;-85
2022/05/15 10:48:05;;;;;;;4.50;3.70;;;;;;;25.33;43.21;97169.78;5097838;28;20184;-88
2022/05/15 10:50:43;;;;;;;3.97;3.57;;;;;;;25.34;43.17;97173.28;5098734;28;20208;-87
2022/05/15 10:59:41;;;;;;;5.27;3.70;;;;;;;25.02;43.30;97171.25;5058298;28;20277;-85
2022/05/15 11:02:43;;;;;;;5.57;3.70;;;;;;;25.10;43.25;97168.66;5081379;28;20196;-87
2022/05/15 11:05:55;;;;;;;4.10;3.70;;;;;;;25.40;43.06;97160.22;5076459;28;20197;-86
2022/05/15 11:09:32;;;;;;;4.27;3.67;;;;;;;25.54;43.83;97146.38;5035908;28;20197;-88
2022/05/15 11:12:46;;;;;;;3.87;3.50;;;;;;;25.99;41.95;97122.13;5038225;28;20218;-90
2022/05/15 11:16:15;;;;;;;5.27;3.57;;;;;;;25.90;42.83;97162.09;5030160;28;20216;-87
2022/05/15 11:19:46;;;;;;;4.23;3.70;;;;;;;25.87;41.77;97155.28;5067509;28;20213;-89
2022/05/15 11:22:38;;;;;;;4.80;3.57;;;;;;;25.52;43.33;97148.34;5061339;28;20212;-86
2022/05/15 11:25:35;;;;;;;4.27;3.70;;;;;;;25.95;42.85;97149.97;5102713;28;20223;-86
2022/05/15 11:28:30;;;;;;;4.57;3.40;;;;;;;25.78;42.50;97140.34;5078077;28;20215;-86
2022/05/15 11:31:09;;;;;;;4.87;3.77;;;;;;;25.63;43.78;97129.50;5095127;28;20219;-86
2022/05/15 11:33:55;;;;;;;6.97;3.77;;;;;;;25.41;44.64;97103.56;5081508;28;20215;-86
2022/05/15 11:36:29;;;;;;;4.73;3.80;;;;;;;25.84;44.21;97139.69;5112369;28;20243;-88
2022/05/15 11:39:14;;;;;;;4.13;3.80;;;;;;;25.98;43.20;97152.31;5093889;28;20198;-87
2022/05/15 11:42:08;;;;;;;5.00;3.93;;;;;;;25.91;43.51;97142.50;5100193;28;20195;-85
2022/05/15 11:44:46;;;;;;;4.37;3.83;;;;;;;25.69;43.49;97098.84;5081084;28;20345;-86
2022/05/15 11:47:39;;;;;;;7.50;5.03;;;;;;;26.24;42.62;97141.59;5075895;28;20185;-88
2022/05/15 11:50:34;;;;;;;9.87;4.40;;;;;;;26.17;43.48;97122.03;5095227;28;20208;-87
2022/05/15 11:53:33;;;;;;;9.43;4.73;;;;;;;26.21;43.56;97144.59;5093965;28;20269;-85
2022/05/15 11:56:45;;;;;;;6.67;4.40;;;;;;;25.92;44.75;97142.38;5075662;28;20202;-87
2022/05/15 11:59:24;;;;;;;5.93;4.33;;;;;;;25.89;45.83;97141.84;5092917;28;20200;-88
2022/05/15 12:02:14;;;;;;;7.23;4.20;;;;;;;25.88;44.13;97129.56;5074073;28;20196;-88
2022/05/15 12:05:24;;;;;;;6.33;4.37;;;;;;;25.81;44.56;97119.59;5101104;28;20290;-87
2022/05/15 12:08:07;;;;;;;7.90;5.10;;;;;;;25.53;45.99;97134.09;5094318;28;20215;-86
2022/05/15 12:10:42;;;;;;;5.53;4.27;;;;;;;25.80;45.87;97147.13;5096622;28;20210;-86
2022/05/15 12:13:43;;;;;;;5.40;4.60;;;;;;;25.65;46.53;97138.13;5116558;28;20183;-89
2022/05/15 12:16:34;;;;;;;5.73;4.40;;;;;;;25.12;47.12;97096.94;5097333;28;20188;-86
2022/05/15 12:19:20;;;;;;;8.50;4.53;;;;;;;25.11;47.46;97076.72;5096243;28;20185;-86
2022/05/15 12:22:01;;;;;;;8.17;5.40;;;;;;;25.47;46.32;97121.47;5077556;28;20199;-88
2022/05/15 12:24:49;;;;;;;8.77;4.40;;;;;;;25.28;46.86;97087.25;5090299;28;20222;-88
2022/05/15 12:27:27;;;;;;;6.67;4.83;;;;;;;25.43;47.06;97111.38;5059725;28;20218;-88
2022/05/15 12:30:12;;;;;;;9.73;5.33;;;;;;;25.35;47.13;97125.38;5058841;28;20188;-88